HOURLY OBS INDEX

013

Northeast interior

BALGO HILLS ASA

Site: 013045
Alt: 421.1m
215km S of HALLS CREEK


  Time     Wind        Temp  DP   Baro     Rain since   Rain past  Vis(m), Cloud(base in m), Weather
  local        km/h                         9am  last   hr   10m    
Tue 04:00  ------/--- --------  1014.4   ----  ----  ----  ----   ----- 
Tue 04:30  ------/--- --------  1014.3   ----  ----  ----  ----   ----- 
Tue 05:00  ------/--- --------  1014.4   ----  ----  ----  ----   ----- 
Tue 05:30  ------/--- --------  1014.7   ----  ----  ----  ----   ----- 
Tue 06:00  ------/--- --------  1015.1   ----  ----  ----  ----   ----- 
Tue 06:30  ------/--- --------  1015.6   ----  ----  ----  ----   ----- 
Tue 07:00  ------/--- --------  1015.9   ----  ----  ----  ----   ----- 
Tue 07:30  ------/--- --------  1016.2   ----  ----  ----  ----   ----- 
Tue 08:00  ------/--- --------  1016.8   ----  ----  ----  ----   ----- 
Tue 08:30  ------/--- --------  1016.9   ----  ----  ----  ----   ----- 
Tue 09:00  ------/--- --------  1016.9   ----  ----  ----  ----   ----- 
Tue 09:30  ------/--- --------  1016.8   ----  ----  ----  ----   ----- 

GILES METEOROLOGICAL OFFICE

Site: 013017
Alt: 598.0m
709km NE of LAVERTON


  Time     Wind        Temp  DP   Baro     Rain since   Rain past  Vis(m), Cloud(base in m), Weather
  local        km/h                         9am  last   hr   10m    
Tue 04:00  ESE 24/ 35  21.2  5.8  1018.6    0.0   0.0   0.0   0.0   10000 
Tue 04:30  ESE 20/ 30  20.8  5.2  1018.8    0.0   0.0   0.0   0.0   10000 
Tue 05:00  ESE 20/ 28  20.5  5.0  1019.3    0.0   0.0   0.0   0.0   10000 
Tue 05:30  ESE 19/ 26  20.3  4.4  1019.5    0.0   0.0   0.0   0.0   10000 
Tue 06:00  ESE 19/ 28  20.5  4.5  1019.8    0.0   0.0   0.0   0.0   10000 
Tue 06:30  ESE 20/ 30  21.2  3.8  1020.0    0.0   0.0   0.0   0.0   10000 
Tue 07:00  ESE 20/ 30  22.2  3.7  1020.5    0.0   0.0   0.0   0.0   10000 
Tue 07:30  ESE 24/ 35  22.8  3.5  1020.9    0.0   0.0   0.0   0.0   10000 
Tue 08:00    E 28/ 39  22.8  3.8  1020.9    0.0   0.0   0.0   0.0   10000 
Tue 08:30    E 20/ 30  24.1  3.9  1021.0    0.0   0.0   0.0   0.0   10000 
Tue 09:00    E 22/ 30  25.4  5.3  1020.9    0.0   0.0   0.0   0.0   10000 
Tue 09:30  ESE 20/ 33  26.4  5.6  1020.4    0.0   0.0   0.0   0.0   10000 

TELFER AERO

Site: 013030
Alt: 291.9m
315km NE of NEWMAN


  Time     Wind        Temp  DP   Baro     Rain since   Rain past  Vis(m), Cloud(base in m), Weather
  local        km/h                         9am  last   hr   10m    
Tue 04:00  SSE 13/ 17  24.7 16.7  1012.7    1.2   0.0   0.0   0.0   10000|SC2370 
Tue 04:30  SSE 15/ 20  25.0 15.3  1013.0    1.2   0.0   0.0   0.0   10000|SC2520 
Tue 05:00   SE 13/ 17  24.2 15.7  1013.3    1.2   0.0   0.0   0.0   10000|SC3150 
Tue 05:30   SE 13/ 17  24.1 15.6  1013.3    1.2   0.0   0.0   0.0   10000 
Tue 06:00   SE 13/ 17  24.0 15.2  1013.4    1.2   0.0   0.0   0.0   10000 
Tue 06:30   SE 17/ 20  24.7 14.8  1013.7    1.2   0.0   0.0   0.0   10000 
Tue 07:00   SE 19/ 22  26.1 14.6  1013.9    1.2   0.0   0.0   0.0   10000 
Tue 07:30   SE 22/ 28  27.6 13.9  1014.1    1.2   0.0   0.0   0.0   10000 
Tue 08:00   SE 26/ 32  28.6 13.3  1014.1    1.2   0.0   0.0   0.0   10000 
Tue 08:30   SE 28/ 33  30.0 13.3  1014.0    1.2   0.0   0.0   0.0   10000 
Tue 09:00  ESE 24/ 33  31.1 13.4  1013.9    1.2   0.0   0.0   0.0   10000 
Tue 09:30  ESE 20/ 28  31.7 13.9  1013.8    0.0   0.0   0.0   0.0   10000 

WARBURTON AIRFIELD

Site: 013011
Alt: 459.0m
497km NE of LAVERTON


  Time     Wind        Temp  DP   Baro     Rain since   Rain past  Vis(m), Cloud(base in m), Weather
  local        km/h                         9am  last   hr   10m    
Tue 04:00  ESE 28/ 39  19.5  4.8  1019.0    0.0   0.0   0.0   0.0   ----- 
Tue 04:30  ESE 26/ 39  19.3  5.4  1019.5    0.0   0.0   0.0   0.0   ----- 
Tue 05:00  ESE 24/ 35  18.9  5.4  1019.9    0.0   0.0   0.0   0.0   ----- 
Tue 05:30  ESE 24/ 33  18.6  5.8  1020.1    0.0   0.0   0.0   0.0   ----- 
Tue 06:00  ESE 26/ 35  18.4  5.9  1020.4    0.0   0.0   0.0   0.0   ----- 
Tue 06:30  ESE 24/ 35  18.7  5.9  1020.5    0.0   0.0   0.0   0.0   ----- 
Tue 07:00  ESE 28/ 41  19.7  6.1  1020.8    0.0   0.0   0.0   0.0   ----- 
Tue 07:30  ESE 24/ 39  20.2  6.2  1021.5    0.0   0.0   0.0   0.0   ----- 
Tue 08:00    E 28/ 39  21.1  6.2  1021.6    0.0   0.0   0.0   0.0   ----- 
Tue 08:30  ESE 28/ 37  21.7  6.0  1021.5    0.0   0.0   0.0   0.0   ----- 
Tue 09:00  ESE 24/ 33  23.4  6.7  1021.5    0.0   0.0   0.0   0.0   ----- 
Tue 09:30    E 19/ 28  24.9  7.1  1021.3    0.0   0.0   0.0   0.0   ----- 

WILUNA AERO

Site: 013044
Alt: 502.4m
km of


  Time     Wind        Temp  DP   Baro     Rain since   Rain past  Vis(m), Cloud(base in m), Weather
  local        km/h                         9am  last   hr   10m    
Tue 04:00  ESE 22/ 32  20.9  3.2  1018.1    0.0   0.0   0.0   0.0   10000 
Tue 04:30  ESE 22/ 30  20.6  3.3  1018.4    0.0   0.0   0.0   0.0   10000 
Tue 05:00  ESE 22/ 30  20.2  3.0  1018.4    0.0   0.0   0.0   0.0   10000 
Tue 05:30    E 20/ 28  19.9  3.2  1018.6    0.0   0.0   0.0   0.0   10000 
Tue 06:00    E 20/ 26  19.7  3.4  1018.9    0.0   0.0   0.0   0.0   10000 
Tue 06:30    E 17/ 24  19.7  3.8  1019.2    0.0   0.0   0.0   0.0   10000 
Tue 07:00    E 19/ 24  20.3  3.9  1019.5    0.0   0.0   0.0   0.0   10000 
Tue 07:30    E 26/ 35  21.0  4.6  1019.6    0.0   0.0   0.0   0.0   10000 
Tue 08:00    E 26/ 35  22.3  4.8  1020.0    0.0   0.0   0.0   0.0   10000 
Tue 08:30    E 26/ 35  22.9  4.9  1019.8    0.0   0.0   0.0   0.0   10000|SC3750 
Tue 09:00    E 26/ 35  23.4  4.9  1019.8    0.0   0.0   0.0   0.0   10000|OC3750 
Tue 09:30    E 20/ 30  24.1  5.5  1019.6    0.0   0.0   0.0   0.0   10000